createdAt,value
2018-11-25T00:00:16.494Z,95.26
2018-11-25T00:02:43.968Z,94.88
2018-11-25T00:05:11.404Z,95.00
2018-11-25T00:07:38.783Z,94.47
2018-11-25T00:10:06.653Z,93.99
2018-11-25T00:12:34.128Z,94.74
2018-11-25T00:15:01.518Z,94.28
2018-11-25T00:17:28.965Z,95.52
2018-11-25T00:19:56.379Z,95.06
2018-11-25T00:22:23.762Z,94.64
2018-11-25T00:24:51.164Z,95.10
2018-11-25T00:27:18.606Z,95.67
2018-11-25T00:29:46.015Z,95.78
2018-11-25T00:32:13.405Z,95.60
2018-11-25T00:34:40.844Z,96.04
2018-11-25T00:37:08.211Z,96.14
2018-11-25T00:39:35.624Z,95.51
2018-11-25T00:42:03.030Z,95.51
2018-11-25T00:44:30.439Z,96.40
2018-11-25T00:46:57.859Z,95.77
2018-11-25T00:49:25.274Z,95.75
2018-11-25T00:51:52.701Z,96.07
2018-11-25T00:54:20.095Z,96.36
2018-11-25T00:56:47.506Z,95.83
2018-11-25T00:59:14.936Z,96.46
2018-11-25T01:01:42.410Z,96.34
2018-11-25T01:04:09.830Z,95.74
2018-11-25T01:06:37.255Z,95.40
2018-11-25T01:09:07.339Z,95.79
2018-11-25T01:11:34.790Z,95.83
2018-11-25T01:14:02.176Z,95.17
2018-11-25T01:16:29.589Z,95.93
2018-11-25T01:18:57.019Z,96.00
2018-11-25T01:21:24.455Z,95.82
2018-11-25T01:23:51.925Z,96.38
2018-11-25T01:26:19.371Z,95.98
2018-11-25T01:28:46.776Z,96.37
2018-11-25T01:31:14.203Z,95.86
2018-11-25T01:33:41.605Z,96.26
2018-11-25T01:36:09.029Z,95.97
2018-11-25T01:38:36.411Z,95.58
2018-11-25T01:41:03.848Z,95.46
2018-11-25T01:43:31.250Z,95.10
2018-11-25T01:45:58.630Z,95.40
2018-11-25T01:48:26.036Z,94.91
2018-11-25T01:50:53.407Z,94.00
2018-11-25T01:53:20.895Z,93.81
2018-11-25T01:55:48.312Z,94.42
2018-11-25T01:58:15.757Z,93.97
2018-11-25T02:00:43.190Z,93.90
2018-11-25T02:03:10.624Z,94.95
2018-11-25T02:05:38.000Z,94.51
2018-11-25T02:08:05.516Z,95.29
2018-11-25T02:10:32.916Z,95.25
2018-11-25T02:13:00.342Z,94.67
2018-11-25T02:15:27.740Z,94.47
2018-11-25T02:17:55.142Z,94.60
2018-11-25T02:20:23.488Z,95.18
2018-11-25T02:22:52.715Z,94.91
2018-11-25T02:25:20.090Z,94.97
2018-11-25T02:27:47.507Z,95.21
2018-11-25T02:30:15.757Z,94.96
2018-11-25T02:32:43.215Z,96.08
2018-11-25T02:35:11.412Z,95.39
2018-11-25T02:37:38.808Z,95.57
2018-11-25T02:40:10.373Z,95.65
2018-11-25T02:42:37.779Z,95.77
2018-11-25T02:45:08.279Z,96.42
2018-11-25T02:47:35.698Z,96.65
2018-11-25T02:50:03.461Z,96.36
2018-11-25T02:52:30.877Z,96.61
2018-11-25T02:54:58.308Z,96.34
2018-11-25T02:57:25.726Z,96.07
2018-11-25T02:59:53.161Z,96.44
2018-11-25T03:02:20.746Z,96.10
2018-11-25T03:04:48.132Z,96.89
2018-11-25T03:07:15.584Z,96.91
2018-11-25T03:09:43.821Z,96.69
2018-11-25T03:12:11.275Z,95.89
2018-11-25T03:14:38.666Z,96.15
2018-11-25T03:17:06.080Z,96.47
2018-11-25T03:19:33.564Z,96.43
2018-11-25T03:22:01.016Z,96.51
2018-11-25T03:24:28.440Z,96.37
2018-11-25T03:26:55.861Z,96.49
2018-11-25T03:29:23.286Z,95.75
2018-11-25T03:31:50.726Z,95.72
2018-11-25T03:34:18.098Z,95.87
2018-11-25T03:36:45.522Z,94.95
2018-11-25T03:39:12.893Z,94.75
2018-11-25T03:41:40.310Z,95.13
2018-11-25T03:44:07.662Z,95.84
2018-11-25T03:46:35.072Z,95.82
2018-11-25T03:49:02.496Z,95.70
2018-11-25T03:51:29.871Z,95.14
2018-11-25T03:53:57.332Z,94.92
2018-11-25T03:56:24.728Z,95.18
2018-11-25T03:58:52.151Z,95.16
2018-11-25T04:01:19.536Z,95.77
2018-11-25T04:03:46.946Z,95.26
2018-11-25T04:06:14.366Z,95.16
2018-11-25T04:08:41.791Z,95.14
2018-11-25T04:11:09.202Z,95.89
2018-11-25T04:13:36.643Z,95.15
2018-11-25T04:16:04.313Z,94.49
2018-11-25T04:18:31.722Z,95.34
2018-11-25T04:20:59.138Z,94.94
2018-11-25T04:23:26.521Z,94.66
2018-11-25T04:25:53.955Z,94.57
2018-11-25T04:28:21.331Z,94.59
2018-11-25T04:30:48.776Z,95.32
2018-11-25T04:33:16.132Z,95.08
2018-11-25T04:35:43.606Z,95.24
2018-11-25T04:38:10.945Z,94.18
2018-11-25T04:40:38.353Z,94.22
2018-11-25T04:43:05.796Z,94.83
2018-11-25T04:45:33.271Z,94.51
2018-11-25T04:48:00.695Z,95.26
2018-11-25T04:50:28.118Z,95.05
2018-11-25T04:52:55.522Z,94.52
2018-11-25T04:55:22.901Z,94.99
2018-11-25T04:57:51.045Z,95.76
2018-11-25T05:00:18.898Z,95.37
2018-11-25T05:02:46.327Z,95.80
2018-11-25T05:05:14.512Z,94.71
2018-11-25T05:07:41.968Z,95.00
2018-11-25T05:10:12.339Z,94.24
2018-11-25T05:12:39.811Z,93.25
2018-11-25T05:15:11.764Z,92.05
2018-11-25T05:17:39.224Z,92.92
2018-11-25T05:20:08.403Z,92.41
2018-11-25T05:22:35.834Z,93.60
2018-11-25T05:25:03.276Z,93.90
2018-11-25T05:27:30.692Z,93.20
2018-11-25T05:29:58.092Z,93.96
2018-11-25T05:32:25.523Z,94.43
2018-11-25T05:34:52.948Z,93.40
2018-11-25T05:37:20.327Z,93.74
2018-11-25T05:39:47.758Z,93.70
2018-11-25T05:42:15.122Z,94.21
2018-11-25T05:44:42.541Z,94.15
2018-11-25T05:47:09.961Z,94.54
2018-11-25T05:49:37.379Z,93.36
2018-11-25T05:52:05.069Z,94.04
2018-11-25T05:54:32.496Z,93.36
2018-11-25T05:56:59.876Z,93.45
2018-11-25T05:59:27.295Z,93.31
2018-11-25T06:01:54.713Z,94.16
2018-11-25T06:04:22.172Z,94.21
2018-11-25T06:06:49.533Z,93.34
2018-11-25T06:09:16.958Z,94.06
2018-11-25T06:11:44.363Z,94.07
2018-11-25T06:14:11.827Z,93.04
2018-11-25T06:16:39.237Z,93.98
2018-11-25T06:19:06.636Z,93.97
2018-11-25T06:21:34.032Z,93.43
2018-11-25T06:24:01.446Z,93.14
2018-11-25T06:26:28.887Z,92.54
2018-11-25T06:28:56.288Z,92.74
2018-11-25T06:31:23.716Z,93.39
2018-11-25T06:33:51.413Z,93.27
2018-11-25T06:36:18.812Z,92.80
2018-11-25T06:38:46.208Z,92.18
2018-11-25T06:41:13.629Z,92.32
2018-11-25T06:43:41.022Z,91.93
2018-11-25T06:46:10.230Z,91.72
2018-11-25T06:48:37.659Z,93.06
2018-11-25T06:51:05.498Z,92.52
2018-11-25T06:53:32.930Z,92.51
2018-11-25T06:56:00.333Z,93.62
2018-11-25T06:58:27.727Z,93.40
2018-11-25T07:00:55.140Z,93.96
2018-11-25T07:03:22.542Z,93.57
2018-11-25T07:05:49.961Z,93.02
2018-11-25T07:08:17.336Z,93.10
2018-11-25T07:10:44.781Z,92.74
2018-11-25T07:13:12.213Z,91.63
2018-11-25T07:15:39.617Z,91.34
2018-11-25T07:18:07.071Z,91.53
2018-11-25T07:20:34.506Z,90.67
2018-11-25T07:23:01.982Z,90.81
2018-11-25T07:25:29.370Z,91.69
2018-11-25T07:27:56.774Z,91.58
2018-11-25T07:30:25.199Z,92.17
2018-11-25T07:32:52.708Z,92.19
2018-11-25T07:35:20.342Z,92.64
2018-11-25T07:37:47.789Z,92.94
2018-11-25T07:40:16.357Z,93.24
2018-11-25T07:42:43.797Z,93.31
2018-11-25T07:45:13.299Z,92.00
2018-11-25T07:47:40.692Z,91.87
2018-11-25T07:50:09.355Z,91.57
2018-11-25T07:52:36.916Z,91.16
2018-11-25T07:55:07.275Z,91.27
2018-11-25T07:57:34.713Z,91.21
2018-11-25T08:00:02.097Z,92.02
2018-11-25T08:02:29.538Z,91.25
2018-11-25T08:04:56.945Z,91.54
2018-11-25T08:07:24.339Z,91.11
2018-11-25T08:09:51.752Z,91.32
2018-11-25T08:12:19.193Z,91.42
2018-11-25T08:14:46.629Z,92.17
2018-11-25T08:17:14.032Z,91.50
2018-11-25T08:19:41.481Z,92.48
2018-11-25T08:22:08.947Z,92.04
2018-11-25T08:24:36.408Z,92.69
2018-11-25T08:27:03.903Z,92.07
2018-11-25T08:29:31.315Z,91.75
2018-11-25T08:31:58.707Z,92.25
2018-11-25T08:34:26.162Z,92.81
2018-11-25T08:36:53.612Z,92.69
2018-11-25T08:39:21.058Z,93.05
2018-11-25T08:41:48.472Z,93.35
2018-11-25T08:44:15.882Z,93.02
2018-11-25T08:46:43.317Z,92.79
2018-11-25T08:49:10.685Z,93.37
2018-11-25T08:51:38.118Z,93.25
2018-11-25T08:54:05.562Z,93.70
2018-11-25T08:56:33.008Z,93.66
2018-11-25T08:59:00.436Z,93.98
2018-11-25T09:01:27.877Z,93.57
2018-11-25T09:03:55.314Z,95.21
2018-11-25T09:06:22.749Z,96.54
2018-11-25T09:08:50.193Z,96.54
2018-11-25T09:11:17.649Z,96.41
2018-11-25T09:13:45.055Z,96.77
2018-11-25T09:16:12.489Z,95.99
2018-11-25T09:18:39.912Z,96.12
2018-11-25T09:21:07.347Z,96.64
2018-11-25T09:23:34.765Z,96.71
2018-11-25T09:26:02.183Z,96.63
2018-11-25T09:28:29.605Z,97.11
2018-11-25T09:30:57.025Z,97.18
2018-11-25T09:33:24.437Z,96.73
2018-11-25T09:35:51.884Z,97.32
2018-11-25T09:38:19.323Z,96.61
2018-11-25T09:40:46.748Z,96.38
2018-11-25T09:43:14.168Z,96.22
2018-11-25T09:45:41.588Z,94.94
2018-11-25T09:48:09.007Z,94.77
2018-11-25T09:50:36.422Z,94.36
2018-11-25T09:53:03.877Z,93.20
2018-11-25T09:55:31.300Z,93.69
2018-11-25T09:57:59.929Z,93.45
2018-11-25T10:00:30.470Z,93.13
2018-11-25T10:02:57.933Z,90.95
2018-11-25T10:05:25.331Z,88.25
2018-11-25T10:07:52.712Z,85.50
2018-11-25T10:10:21.974Z,85.15
2018-11-25T10:12:49.436Z,84.28
2018-11-25T10:15:18.758Z,83.99
2018-11-25T10:17:46.201Z,84.52
2018-11-25T10:20:20.737Z,83.47
2018-11-25T10:22:48.157Z,83.56
2018-11-25T10:25:16.224Z,84.00
2018-11-25T10:27:43.645Z,84.26
2018-11-25T10:30:14.183Z,84.88
2018-11-25T10:32:42.400Z,84.72
2018-11-25T10:35:09.423Z,84.56
2018-11-25T10:37:36.898Z,84.55
2018-11-25T10:40:11.149Z,83.78
2018-11-25T10:42:38.652Z,84.36
2018-11-25T10:45:13.329Z,81.88
2018-11-25T10:47:40.771Z,83.38
2018-11-25T10:50:10.069Z,82.09
2018-11-25T10:52:37.502Z,81.24
2018-11-25T10:55:06.203Z,82.30
2018-11-25T10:57:33.652Z,82.40
2018-11-25T11:00:01.119Z,80.14
2018-11-25T11:02:33.995Z,81.48
2018-11-25T11:05:05.013Z,80.40
2018-11-25T11:07:38.977Z,79.61
2018-11-25T11:10:07.985Z,79.70
2018-11-25T11:12:35.564Z,78.98
2018-11-25T11:15:03.669Z,79.10
2018-11-25T11:17:31.070Z,79.50
2018-11-25T11:19:58.562Z,79.66
2018-11-25T11:22:25.974Z,79.52
2018-11-25T11:24:53.376Z,79.40
2018-11-25T11:27:20.761Z,77.30
2018-11-25T11:29:48.175Z,75.11
2018-11-25T11:32:15.639Z,73.92
2018-11-25T11:34:43.043Z,72.29
2018-11-25T11:37:10.463Z,71.35
2018-11-25T11:39:37.862Z,71.25
2018-11-25T11:42:05.740Z,70.35
2018-11-25T11:44:33.177Z,69.43
2018-11-25T11:47:00.622Z,68.30
2018-11-25T11:49:28.152Z,69.82
2018-11-25T11:51:55.624Z,69.87
2018-11-25T11:54:23.116Z,68.44
2018-11-25T11:56:50.511Z,69.46
2018-11-25T11:59:17.981Z,69.95
2018-11-25T12:01:45.434Z,68.62
2018-11-25T12:04:12.885Z,68.62
2018-11-25T12:06:40.284Z,68.27
2018-11-25T12:09:09.203Z,67.23
2018-11-25T12:11:36.642Z,67.55
2018-11-25T12:14:04.589Z,66.60
2018-11-25T12:16:32.108Z,66.86
2018-11-25T12:18:59.597Z,65.64
2018-11-25T12:21:27.048Z,67.59
2018-11-25T12:23:54.583Z,67.96
2018-11-25T12:26:25.335Z,67.33
2018-11-25T12:28:52.953Z,68.46
2018-11-25T12:31:20.405Z,67.69
2018-11-25T12:33:47.923Z,67.58
2018-11-25T12:36:15.479Z,69.56
2018-11-25T12:38:42.920Z,67.23
2018-11-25T12:41:10.408Z,67.42
2018-11-25T12:43:37.847Z,67.27
2018-11-25T12:46:05.338Z,66.64
2018-11-25T12:48:32.809Z,63.79
2018-11-25T12:51:00.295Z,63.32
2018-11-25T12:53:27.723Z,62.81
2018-11-25T12:55:55.139Z,61.85
2018-11-25T12:58:22.595Z,61.35
2018-11-25T13:00:50.079Z,61.80
2018-11-25T13:03:17.530Z,62.95
2018-11-25T13:05:46.188Z,63.22
2018-11-25T13:08:13.275Z,64.02
2018-11-25T13:10:40.815Z,63.87
2018-11-25T13:13:09.394Z,63.53
2018-11-25T13:15:36.816Z,63.83
2018-11-25T13:18:04.542Z,61.88
2018-11-25T13:20:31.977Z,60.68
2018-11-25T13:22:59.392Z,60.71
2018-11-25T13:25:26.823Z,59.22
2018-11-25T13:27:54.254Z,60.00
2018-11-25T13:30:26.818Z,61.87
2018-11-25T13:32:55.610Z,60.94
2018-11-25T13:35:23.533Z,60.75
2018-11-25T13:37:51.077Z,59.18
2018-11-25T13:40:18.529Z,59.89
2018-11-25T13:42:46.013Z,58.86
2018-11-25T13:45:13.475Z,59.39
2018-11-25T13:47:41.014Z,57.66
2018-11-25T13:50:09.547Z,57.48
2018-11-25T13:52:36.975Z,56.56
2018-11-25T13:55:08.899Z,55.34
2018-11-25T13:57:36.342Z,57.87
2018-11-25T14:00:06.521Z,56.91
2018-11-25T14:02:33.981Z,57.47
2018-11-25T14:05:01.350Z,56.47
2018-11-25T14:07:28.762Z,58.17
2018-11-25T14:09:56.229Z,57.91
2018-11-25T14:12:23.694Z,58.77
2018-11-25T14:14:51.189Z,59.25
2018-11-25T14:17:18.624Z,59.79
2018-11-25T14:19:46.126Z,60.19
2018-11-25T14:22:13.594Z,61.16
2018-11-25T14:24:41.046Z,62.63
2018-11-25T14:27:09.354Z,65.04
2018-11-25T14:29:36.887Z,66.78
2018-11-25T14:32:04.601Z,69.60
2018-11-25T14:34:32.026Z,71.60
2018-11-25T14:36:59.458Z,73.55
2018-11-25T14:39:26.917Z,75.23
2018-11-25T14:41:54.366Z,76.36
2018-11-25T14:44:21.821Z,77.02
2018-11-25T14:46:49.263Z,77.52
2018-11-25T14:49:16.692Z,78.53
2018-11-25T14:51:44.186Z,78.36
2018-11-25T14:54:11.664Z,78.20
2018-11-25T14:56:39.150Z,78.43
2018-11-25T14:59:06.613Z,79.18
2018-11-25T15:01:34.118Z,79.01
2018-11-25T15:04:01.578Z,79.29
2018-11-25T15:06:29.404Z,79.08
2018-11-25T15:08:56.445Z,79.80
2018-11-25T15:11:23.860Z,79.48
2018-11-25T15:13:51.340Z,79.88
2018-11-25T15:16:18.773Z,81.07
2018-11-25T15:18:46.226Z,80.48
2018-11-25T15:21:13.831Z,80.46
2018-11-25T15:23:41.623Z,81.58
2018-11-25T15:26:11.272Z,82.46
2018-11-25T15:28:38.723Z,82.63
2018-11-25T15:31:06.185Z,84.40
2018-11-25T15:33:33.984Z,85.70
2018-11-25T15:36:01.460Z,86.45
2018-11-25T15:38:28.914Z,87.56
2018-11-25T15:40:57.314Z,88.78
2018-11-25T15:43:23.833Z,88.47
2018-11-25T15:45:51.299Z,89.15
2018-11-25T15:48:20.487Z,89.13
2018-11-25T15:50:47.961Z,89.26
2018-11-25T15:53:15.438Z,88.61
2018-11-25T15:55:43.994Z,88.64
2018-11-25T15:58:11.496Z,87.82
2018-11-25T16:00:39.039Z,88.58
2018-11-25T16:03:07.800Z,88.96
2018-11-25T16:05:35.498Z,88.83
2018-11-25T16:08:04.423Z,88.35
2018-11-25T16:10:30.594Z,88.66
2018-11-25T16:12:58.120Z,89.24
2018-11-25T16:15:26.819Z,88.60
2018-11-25T16:17:54.300Z,89.39
2018-11-25T16:20:23.075Z,89.63
2018-11-25T16:22:53.053Z,89.56
2018-11-25T16:25:23.539Z,89.57
2018-11-25T16:27:53.198Z,90.61
2018-11-25T16:30:20.641Z,90.80
2018-11-25T16:32:48.082Z,90.56
2018-11-25T16:35:15.518Z,91.57
2018-11-25T16:37:43.044Z,91.34
2018-11-25T16:40:13.887Z,91.36
2018-11-25T16:42:41.403Z,91.62
2018-11-25T16:45:12.169Z,91.68
2018-11-25T16:47:39.689Z,91.25
2018-11-25T16:50:09.038Z,91.87
2018-11-25T16:52:36.537Z,91.69
2018-11-25T16:55:05.394Z,90.76
2018-11-25T16:57:32.854Z,90.87
2018-11-25T17:00:00.301Z,91.71
2018-11-25T17:02:27.803Z,91.58
2018-11-25T17:04:55.251Z,92.29
2018-11-25T17:07:22.683Z,91.52
2018-11-25T17:09:50.161Z,92.06
2018-11-25T17:12:17.591Z,92.10
2018-11-25T17:14:45.121Z,92.58
2018-11-25T17:17:12.599Z,92.21
2018-11-25T17:19:40.053Z,93.04
2018-11-25T17:22:07.504Z,92.54
2018-11-25T17:24:34.993Z,92.24
2018-11-25T17:27:02.456Z,92.98
2018-11-25T17:29:29.956Z,92.98
2018-11-25T17:31:57.382Z,93.20
2018-11-25T17:34:24.890Z,93.17
2018-11-25T17:36:52.329Z,92.94
2018-11-25T17:39:19.811Z,92.49
2018-11-25T17:41:47.250Z,93.02
2018-11-25T17:44:14.712Z,92.38
2018-11-25T17:46:42.235Z,93.33
2018-11-25T17:49:09.677Z,93.73
2018-11-25T17:51:37.125Z,93.96
2018-11-25T17:54:04.849Z,93.55
2018-11-25T17:56:32.273Z,93.63
2018-11-25T17:58:59.795Z,93.80
2018-11-25T18:01:27.240Z,93.41
2018-11-25T18:03:54.720Z,93.82
2018-11-25T18:06:22.186Z,93.34
2018-11-25T18:08:49.629Z,93.78
2018-11-25T18:11:17.095Z,94.20
2018-11-25T18:13:44.669Z,94.28
2018-11-25T18:16:12.243Z,94.10
2018-11-25T18:18:44.713Z,94.91
2018-11-25T18:21:14.401Z,94.20
2018-11-25T18:23:41.873Z,94.48
2018-11-25T18:26:09.304Z,94.70
2018-11-25T18:28:36.799Z,94.16
2018-11-25T18:31:04.958Z,93.77
2018-11-25T18:33:32.442Z,94.28
2018-11-25T18:35:59.882Z,94.42
2018-11-25T18:38:27.451Z,94.82
2018-11-25T18:40:54.866Z,94.10
2018-11-25T18:43:22.351Z,94.71
2018-11-25T18:45:49.787Z,94.92
2018-11-25T18:48:17.740Z,95.29
2018-11-25T18:50:45.191Z,95.50
2018-11-25T18:53:12.921Z,94.50
2018-11-25T18:55:39.233Z,94.60
2018-11-25T18:58:06.831Z,94.37
2018-11-25T19:01:12.219Z,94.58
2018-11-25T19:03:39.715Z,94.23
2018-11-25T19:06:07.142Z,93.53
2018-11-25T19:08:34.608Z,93.67
2018-11-25T19:11:02.105Z,94.04
2018-11-25T19:13:29.661Z,93.45
2018-11-25T19:15:57.205Z,94.29
2018-11-25T19:18:24.723Z,93.80
2018-11-25T19:20:52.312Z,93.26
2018-11-25T19:23:19.761Z,93.54
2018-11-25T19:25:47.221Z,94.34
2018-11-25T19:28:14.697Z,93.52
2018-11-25T19:30:42.246Z,93.26
2018-11-25T19:33:09.982Z,93.84
2018-11-25T19:35:38.128Z,94.28
2018-11-25T19:38:05.865Z,94.56
2018-11-25T19:40:33.363Z,93.79
2018-11-25T19:43:00.834Z,93.94
2018-11-25T19:45:28.372Z,93.82
2018-11-25T19:47:56.617Z,94.01
2018-11-25T19:50:26.564Z,93.49
2018-11-25T19:52:54.053Z,93.88
2018-11-25T19:55:21.821Z,93.76
2018-11-25T19:57:49.141Z,93.74
2018-11-25T20:00:19.125Z,93.79
2018-11-25T20:02:46.630Z,92.90
2018-11-25T20:05:14.261Z,92.50
2018-11-25T20:07:42.547Z,91.99
2018-11-25T20:10:15.109Z,92.43
2018-11-25T20:12:44.400Z,92.80
2018-11-25T20:15:13.102Z,92.51
2018-11-25T20:17:40.662Z,92.65
2018-11-25T20:20:12.505Z,93.92
2018-11-25T20:22:40.053Z,93.42
2018-11-25T20:25:14.794Z,93.26
2018-11-25T20:27:44.267Z,93.36
2018-11-25T20:30:14.858Z,93.25
2018-11-25T20:32:47.951Z,93.67
2018-11-25T20:35:15.510Z,93.72
2018-11-25T20:37:48.556Z,93.29
2018-11-25T20:40:15.986Z,93.59
2018-11-25T20:42:43.476Z,93.75
2018-11-25T20:45:17.659Z,93.76
2018-11-25T20:47:45.342Z,93.56
2018-11-25T20:50:12.887Z,93.81
2018-11-25T20:52:45.886Z,93.46
2018-11-25T20:55:14.540Z,93.33
2018-11-25T20:57:42.071Z,93.56
2018-11-25T21:00:15.061Z,92.78
2018-11-25T21:02:41.772Z,93.32
2018-11-25T21:05:10.967Z,93.27
2018-11-25T21:07:38.510Z,94.13
2018-11-25T21:10:09.147Z,93.71
2018-11-25T21:12:36.772Z,93.51
2018-11-25T21:15:04.891Z,93.39
2018-11-25T21:17:32.436Z,93.10
2018-11-25T21:20:00.081Z,92.69
2018-11-25T21:22:27.535Z,92.30
2018-11-25T21:24:55.020Z,92.34
2018-11-25T21:27:22.478Z,93.11
2018-11-25T21:29:49.937Z,92.47
2018-11-25T21:32:17.358Z,93.28
2018-11-25T21:34:45.016Z,93.34
2018-11-25T21:37:12.540Z,93.08
2018-11-25T21:39:39.997Z,92.78
2018-11-25T21:42:07.738Z,92.32
2018-11-25T21:44:35.181Z,93.15
2018-11-25T21:47:03.087Z,92.44
2018-11-25T21:49:30.868Z,92.21
2018-11-25T21:51:58.309Z,92.60
2018-11-25T21:54:25.955Z,93.11
2018-11-25T21:56:53.396Z,92.71
2018-11-25T21:59:21.127Z,92.72
2018-11-25T22:01:48.732Z,92.83
2018-11-25T22:04:16.222Z,92.95
2018-11-25T22:06:43.651Z,92.77
2018-11-25T22:09:11.099Z,93.36
2018-11-25T22:11:38.473Z,92.40
2018-11-25T22:14:05.973Z,93.66
2018-11-25T22:16:33.388Z,92.77
2018-11-25T22:19:00.800Z,93.80
2018-11-25T22:21:28.197Z,92.82
2018-11-25T22:23:55.686Z,92.53
2018-11-25T22:26:23.087Z,92.67
2018-11-25T22:28:50.497Z,93.28
2018-11-25T22:31:18.008Z,92.83
2018-11-25T22:33:45.443Z,93.55
2018-11-25T22:36:12.836Z,92.88
2018-11-25T22:38:40.296Z,92.82
2018-11-25T22:41:08.342Z,92.99
2018-11-25T22:43:36.383Z,92.87
2018-11-25T22:46:04.217Z,92.95
2018-11-25T22:48:31.688Z,92.06
2018-11-25T22:50:59.151Z,92.06
2018-11-25T22:53:26.558Z,92.30
2018-11-25T22:55:54.452Z,92.31
2018-11-25T22:58:21.848Z,92.96
2018-11-25T23:00:52.027Z,92.08
2018-11-25T23:03:19.830Z,93.15
2018-11-25T23:05:58.472Z,92.78
2018-11-25T23:08:25.915Z,93.12
2018-11-25T23:10:54.270Z,93.24
2018-11-25T23:13:21.827Z,93.38
2018-11-25T23:15:49.316Z,92.86
2018-11-25T23:18:16.682Z,92.69
2018-11-25T23:20:44.258Z,93.05
2018-11-25T23:23:11.695Z,92.86
2018-11-25T23:25:39.132Z,92.79
2018-11-25T23:28:06.567Z,92.76
2018-11-25T23:30:34.016Z,92.50
2018-11-25T23:33:01.439Z,93.28
2018-11-25T23:35:30.875Z,92.53
2018-11-25T23:37:57.349Z,92.17
2018-11-25T23:40:24.813Z,92.03
2018-11-25T23:42:52.215Z,91.35
2018-11-25T23:45:19.631Z,91.93
2018-11-25T23:47:47.036Z,91.88
2018-11-25T23:50:14.837Z,91.89
2018-11-25T23:52:43.383Z,92.80
2018-11-25T23:55:11.801Z,91.56
2018-11-25T23:57:39.585Z,91.97
